createdAt,value
2022-09-29T00:03:58.566Z,9.15
2022-09-29T00:09:00.087Z,9.18
2022-09-29T00:14:01.666Z,8.81
2022-09-29T00:19:03.942Z,8.94
2022-09-29T00:24:05.590Z,9.17
2022-09-29T00:29:07.218Z,9.07
2022-09-29T00:34:08.769Z,9.00
2022-09-29T00:39:10.657Z,9.03
2022-09-29T00:44:14.986Z,9.05
2022-09-29T00:49:38.792Z,9.02
2022-09-29T00:54:46.192Z,9.00
2022-09-29T01:00:04.493Z,8.76
2022-09-29T01:05:09.135Z,8.67
2022-09-29T01:10:11.727Z,8.82
2022-09-29T01:15:14.458Z,8.67
2022-09-29T01:20:22.539Z,8.86
2022-09-29T01:25:51.248Z,8.76
2022-09-29T01:31:05.865Z,8.68
2022-09-29T01:36:27.112Z,8.70
2022-09-29T01:41:38.742Z,8.31
2022-09-29T01:46:44.392Z,8.55
2022-09-29T01:51:59.580Z,8.62
2022-09-29T01:57:10.688Z,8.44
2022-09-29T02:02:19.149Z,8.33
2022-09-29T02:07:26.276Z,8.48
2022-09-29T02:12:29.532Z,8.43
2022-09-29T02:17:34.123Z,8.52
2022-09-29T02:22:36.089Z,8.47
2022-09-29T02:27:37.828Z,8.38
2022-09-29T02:32:39.435Z,8.40
2022-09-29T02:37:47.368Z,8.32
2022-09-29T02:43:07.472Z,8.32
2022-09-29T02:48:21.738Z,8.39
2022-09-29T02:53:43.340Z,8.30
2022-09-29T02:59:01.989Z,8.34
2022-09-29T03:04:04.803Z,8.44
2022-09-29T03:09:06.542Z,8.42
2022-09-29T03:14:08.235Z,8.41
2022-09-29T03:19:09.773Z,8.35
2022-09-29T03:24:11.352Z,8.47
2022-09-29T03:29:12.926Z,8.49
2022-09-29T03:34:14.541Z,8.48
2022-09-29T03:39:16.105Z,8.18
2022-09-29T03:44:17.711Z,8.06
2022-09-29T03:49:19.460Z,8.10
2022-09-29T03:54:21.174Z,8.20
2022-09-29T03:59:22.711Z,8.36
2022-09-29T04:04:24.297Z,8.45
2022-09-29T04:09:25.928Z,8.55
2022-09-29T04:14:27.468Z,8.59
2022-09-29T04:19:28.980Z,8.47
2022-09-29T04:24:30.483Z,8.51
2022-09-29T04:29:32.009Z,8.46
2022-09-29T04:34:33.633Z,8.52
2022-09-29T04:39:35.431Z,8.49
2022-09-29T04:44:37.007Z,8.49
2022-09-29T04:49:38.714Z,8.16
2022-09-29T04:54:40.673Z,8.13
2022-09-29T04:59:42.238Z,8.32
2022-09-29T05:04:43.951Z,8.57
2022-09-29T05:09:45.539Z,8.52
2022-09-29T05:14:49.808Z,8.36
2022-09-29T05:19:53.476Z,8.52
2022-09-29T05:24:55.128Z,8.60
2022-09-29T05:29:56.678Z,8.63
2022-09-29T05:35:00.958Z,8.72
2022-09-29T05:40:02.613Z,8.76
2022-09-29T05:45:04.764Z,8.80
2022-09-29T05:50:06.883Z,8.24
2022-09-29T05:55:11.131Z,8.50
2022-09-29T06:00:14.048Z,8.63
2022-09-29T06:05:15.605Z,8.68
2022-09-29T06:10:17.271Z,8.85
2022-09-29T06:15:18.797Z,8.81
2022-09-29T06:20:21.877Z,8.85
2022-09-29T06:25:23.712Z,8.73
2022-09-29T06:30:25.391Z,9.09
2022-09-29T06:35:48.248Z,9.07
2022-09-29T06:40:49.861Z,9.40
2022-09-29T06:45:51.454Z,9.64
2022-09-29T06:51:05.151Z,9.87
2022-09-29T06:56:10.676Z,9.80
2022-09-29T07:01:12.827Z,9.90
2022-09-29T07:06:19.161Z,9.61
2022-09-29T07:11:21.874Z,9.90
2022-09-29T07:16:24.356Z,10.04
2022-09-29T07:21:26.114Z,10.01
2022-09-29T07:26:28.232Z,10.24
2022-09-29T07:31:35.376Z,10.35
2022-09-29T07:36:44.183Z,10.42
2022-09-29T07:41:45.810Z,10.51
2022-09-29T07:46:48.995Z,10.42
2022-09-29T07:51:50.549Z,10.57
2022-09-29T07:56:52.160Z,10.73
2022-09-29T08:01:54.054Z,10.79
2022-09-29T08:06:56.247Z,10.87
2022-09-29T08:12:06.854Z,11.03
2022-09-29T08:17:09.018Z,11.08
2022-09-29T08:22:10.522Z,11.18
2022-09-29T08:27:18.669Z,11.19
2022-09-29T08:32:20.764Z,11.28
2022-09-29T08:37:22.351Z,11.33
2022-09-29T08:42:36.190Z,11.45
2022-09-29T08:47:49.498Z,11.56
2022-09-29T08:52:54.854Z,11.50
2022-09-29T08:58:01.428Z,11.63
2022-09-29T09:03:09.097Z,11.72
2022-09-29T09:08:25.853Z,11.77
2022-09-29T09:13:27.388Z,11.81
2022-09-29T09:18:52.140Z,11.90
2022-09-29T09:23:59.887Z,11.94
2022-09-29T09:29:09.272Z,12.00
2022-09-29T09:34:35.177Z,12.01
2022-09-29T09:40:14.917Z,12.07
2022-09-29T09:45:31.560Z,12.06
2022-09-29T09:50:42.939Z,12.08
2022-09-29T09:55:47.447Z,12.25
2022-09-29T10:00:52.699Z,12.28
2022-09-29T10:05:54.363Z,12.31
2022-09-29T10:10:59.049Z,12.39
2022-09-29T10:16:13.236Z,12.40
2022-09-29T10:21:29.080Z,12.41
2022-09-29T10:26:37.892Z,12.53
2022-09-29T10:31:39.911Z,12.74
2022-09-29T10:36:56.768Z,12.92
2022-09-29T10:41:58.547Z,12.81
2022-09-29T10:47:00.408Z,12.88
2022-09-29T10:52:06.961Z,12.93
2022-09-29T10:57:14.407Z,13.02
2022-09-29T11:02:23.697Z,13.15
2022-09-29T11:07:25.295Z,13.29
2022-09-29T11:12:34.013Z,13.30
2022-09-29T11:17:38.805Z,13.20
2022-09-29T11:22:43.416Z,13.27
2022-09-29T11:27:53.996Z,13.37
2022-09-29T11:32:55.427Z,13.42
2022-09-29T11:37:59.650Z,13.30
2022-09-29T11:43:04.939Z,13.30
2022-09-29T11:48:27.331Z,13.29
2022-09-29T11:53:51.261Z,13.48
2022-09-29T11:59:04.705Z,13.63
2022-09-29T12:04:54.376Z,13.69
2022-09-29T12:10:26.364Z,13.68
2022-09-29T12:15:46.643Z,13.69
2022-09-29T12:20:50.444Z,13.65
2022-09-29T12:26:05.126Z,13.62
2022-09-29T12:31:23.879Z,13.62
2022-09-29T12:36:44.244Z,13.60
2022-09-29T12:41:50.091Z,13.69
2022-09-29T12:47:16.454Z,13.78
2022-09-29T12:52:21.292Z,13.89
2022-09-29T12:57:36.744Z,13.95
2022-09-29T13:03:03.357Z,13.86
2022-09-29T13:08:41.174Z,13.93
2022-09-29T13:14:17.975Z,14.06
2022-09-29T13:19:57.465Z,14.07
2022-09-29T13:25:08.659Z,14.01
2022-09-29T13:30:16.145Z,13.96
2022-09-29T13:35:21.530Z,13.96
2022-09-29T13:40:26.827Z,14.00
2022-09-29T13:45:31.684Z,14.03
2022-09-29T13:50:50.226Z,13.99
2022-09-29T13:55:56.419Z,13.95
2022-09-29T14:01:00.689Z,13.96
2022-09-29T14:11:44.551Z,13.91
2022-09-29T14:17:08.631Z,13.95
2022-09-29T14:22:32.029Z,13.93
2022-09-29T14:27:52.385Z,13.90
2022-09-29T14:32:56.482Z,13.91
2022-09-29T14:38:06.680Z,13.88
2022-09-29T14:43:15.603Z,13.87
2022-09-29T14:48:53.651Z,13.82
2022-09-29T14:54:25.387Z,13.68
2022-09-29T14:59:48.063Z,13.65
2022-09-29T15:04:49.816Z,13.57
2022-09-29T15:09:54.204Z,13.59
2022-09-29T15:14:58.094Z,13.52
2022-09-29T15:20:16.834Z,13.51
2022-09-29T15:25:29.399Z,13.51
2022-09-29T15:30:31.916Z,13.52
2022-09-29T15:35:39.324Z,13.48
2022-09-29T15:40:40.829Z,13.44
2022-09-29T15:45:52.949Z,13.49
2022-09-29T15:50:55.835Z,13.49
2022-09-29T15:55:57.432Z,13.51
2022-09-29T16:00:58.903Z,13.45
2022-09-29T16:06:04.709Z,13.41
2022-09-29T16:11:19.514Z,13.31
2022-09-29T16:16:27.273Z,13.29
2022-09-29T16:21:35.175Z,13.29
2022-09-29T16:26:43.198Z,13.29
2022-09-29T16:31:49.179Z,13.29
2022-09-29T16:36:52.156Z,13.24
2022-09-29T16:41:58.738Z,13.20
2022-09-29T16:47:15.874Z,13.08
2022-09-29T16:52:28.730Z,13.07
2022-09-29T16:57:31.454Z,13.01
2022-09-29T17:02:33.057Z,13.02
2022-09-29T17:07:39.356Z,12.90
2022-09-29T17:12:41.166Z,13.04
2022-09-29T17:17:44.821Z,12.90
2022-09-29T17:22:46.965Z,12.90
2022-09-29T17:28:07.573Z,12.75
2022-09-29T17:33:12.103Z,12.75
2022-09-29T17:38:14.975Z,12.64
2022-09-29T17:43:19.908Z,12.46
2022-09-29T17:48:21.634Z,12.53
2022-09-29T17:53:24.334Z,12.35
2022-09-29T17:58:25.895Z,12.29
2022-09-29T18:03:29.321Z,12.27
2022-09-29T18:08:30.888Z,12.28
2022-09-29T18:13:32.471Z,12.22
2022-09-29T18:18:34.703Z,12.28
2022-09-29T18:23:39.571Z,12.47
2022-09-29T18:28:41.184Z,12.24
2022-09-29T18:33:42.809Z,12.21
2022-09-29T18:38:44.493Z,12.31
2022-09-29T18:43:49.094Z,12.25
2022-09-29T18:48:50.851Z,12.26
2022-09-29T18:53:52.858Z,12.35
2022-09-29T18:58:54.416Z,12.48
2022-09-29T19:03:56.416Z,12.29
2022-09-29T19:08:58.115Z,12.20
2022-09-29T19:13:59.743Z,12.23
2022-09-29T19:19:04.268Z,12.14
2022-09-29T19:24:05.834Z,12.10
2022-09-29T19:29:07.398Z,12.25
2022-09-29T19:34:08.897Z,12.12
2022-09-29T19:39:12.008Z,12.14
2022-09-29T19:44:13.570Z,12.15
2022-09-29T19:49:15.483Z,12.11
2022-09-29T19:54:20.273Z,12.00
2022-09-29T19:59:26.419Z,11.97
2022-09-29T20:04:33.200Z,11.96
2022-09-29T20:09:35.015Z,12.15
2022-09-29T20:14:37.863Z,12.19
2022-09-29T20:19:39.392Z,12.20
2022-09-29T20:24:40.970Z,12.04
2022-09-29T20:29:42.529Z,12.14
2022-09-29T20:34:44.057Z,12.10
2022-09-29T20:39:45.650Z,12.16
2022-09-29T20:44:47.243Z,11.91
2022-09-29T20:49:48.842Z,11.79
2022-09-29T20:54:50.417Z,11.72
2022-09-29T20:59:51.936Z,11.63
2022-09-29T21:04:54.008Z,11.71
2022-09-29T21:09:55.617Z,11.82
2022-09-29T21:14:57.153Z,11.70
2022-09-29T21:19:58.685Z,11.68
2022-09-29T21:25:00.265Z,11.47
2022-09-29T21:30:02.364Z,11.48
2022-09-29T21:35:04.231Z,11.47
2022-09-29T21:40:06.214Z,11.38
2022-09-29T21:45:10.124Z,11.44
2022-09-29T21:50:11.958Z,11.17
2022-09-29T21:55:13.605Z,11.28
2022-09-29T22:00:17.264Z,11.28
2022-09-29T22:05:18.933Z,11.15
2022-09-29T22:10:20.430Z,11.21
2022-09-29T22:15:21.956Z,10.88
2022-09-29T22:20:23.491Z,10.88
2022-09-29T22:25:27.494Z,11.08
2022-09-29T22:30:32.186Z,11.19
2022-09-29T22:35:37.470Z,11.30
2022-09-29T22:40:40.127Z,11.29
2022-09-29T22:45:41.728Z,10.97
2022-09-29T22:50:47.402Z,11.24
2022-09-29T22:55:48.948Z,11.24
2022-09-29T23:01:02.512Z,11.26
2022-09-29T23:06:05.819Z,11.36
2022-09-29T23:11:08.237Z,10.90
2022-09-29T23:16:12.815Z,10.94
2022-09-29T23:21:19.122Z,10.88
2022-09-29T23:26:20.968Z,10.86
2022-09-29T23:31:22.958Z,10.88
2022-09-29T23:36:26.414Z,10.93
2022-09-29T23:41:30.032Z,10.87
2022-09-29T23:46:33.535Z,10.95
2022-09-29T23:51:36.984Z,10.89
2022-09-29T23:56:39.055Z,10.79
